Old Res Weather

Lexington, Massachusetts, USA

66°F
4/24/2024 2:45pm 
  • Lexington Conditions: Mostly cloudy
  • Temperature: 65.5°F / 18.6°CWarmer 6.3°F than last hour.
  • Dew Point: 45.3°FIncreased 1.4°Fsince last hour.
  • Relative Humidity: 48%Decreased 9.0% since last hour.
  • Wind: Calm, 10-min avg: Calm, gust: None
  • Barometer: 29.78 inFalling 0.02  inHg/hr Falling Slowly
  • Visibility: 10 miles
  • Rain Today: 0.00 in
  • UV Index: $VPuv  Low 
  •   

Nearby Reports - Official Weather Stations - Current Conditions

Data from the National Weather Service

KBED - Bedford, Massachusetts, USA


Distance from station: NW 4mi, 6km

Updated Wed Apr 24, 2024 1:51pm EDT

Mostly cloudy

Mostly cloudy

Wind from WSW

Wind:

WSW 12 mph, 19 km/h,
Gust: 20 mph, 31 km/h

Temperature: 57°F (14°C)

Dew Point: 41°F (5°C)

Humidity: 55%

Barometer: 29.78 in (1008.5 hPa)

Clouds: Mostly cloudy

Visibility: 10 miles (16 km)

Cloud details: Partly cloudy 7000 ft
Mostly cloudy 8000 ft


2024/04/24 17:51 KBED 241751Z 25010G17KT 10SM SCT070 BKN080 14/05 A2978 RMK AO2 SLP096 60000 T01440050 10144 20078 58008

KBOS - Boston, Massachusetts, USA


Distance from station: ESE 13mi, 20km

Updated Wed Apr 24, 2024 1:54pm EDT

Mostly cloudy

Mostly cloudy

Wind from WSW

Wind:

WSW 12 mph, 19 km/h

Temperature: 59°F (15°C)

Dew Point: 41°F (5°C)

Humidity: 51%

Barometer: 29.78 in (1008.5 hPa)

Clouds: Mostly cloudy

Visibility: 10 miles (16 km)

Cloud details: Few Clouds 5500 ft
Mostly cloudy 8000 ft
Mostly cloudy 22000 ft


2024/04/24 17:54 KBOS 241754Z 25010KT 10SM FEW055 BKN080 BKN220 15/05 A2978 RMK AO2 SLP085 60000 T01500050 10150 20083 56011

KOWD - Norwood, Massachusetts, USA


Distance from station: SSE 18mi, 29km

Updated Wed Apr 24, 2024 1:53pm EDT

Clear

Clear

Wind from varies

Wind:

varies 7 mph, 11 km/h,
Gust: 17 mph, 28 km/h

Temperature: 63°F (17°C)

Dew Point: 43°F (6°C)

Humidity: 49%

Barometer: 29.79 in (1008.8 hPa)

Clouds: Clear

Visibility: 10 miles (16 km)


2024/04/24 17:53 KOWD 241753Z VRB06G15KT 10SM CLR 17/06 A2979 RMK AO2 SLP086 60000 T01670061 10167 20094 56012

KBVY - Beverly, Massachusetts, USA


Distance from station: ENE 20mi, 32km

Updated Wed Apr 24, 2024 1:53pm EDT

Overcast

Overcast

Wind from WSW

Wind:

WSW 12 mph, 19 km/h

Temperature: 55°F (13°C)

Dew Point: 41°F (5°C)

Humidity: 59%

Barometer: 29.77 in (1008.1 hPa)

Clouds: Overcast

Visibility: 10 miles (16 km)

Cloud details: Overcast 7000 ft


2024/04/24 17:53 KBVY 241753Z 25010KT 10SM OVC070 13/05 A2977 RMK AO2 SLP078 60000 T01330050 10133 20078 56010

KLWM - Lawrence, Massachusetts, USA


Distance from station: NNE 20mi, 33km

Updated Wed Apr 24, 2024 1:54pm EDT

Mostly cloudy

Mostly cloudy

Wind from SW

Wind:

SW 8 mph, 13 km/h

Temperature: 57°F (14°C)

Dew Point: 41°F (5°C)

Humidity: 55%

Barometer: 29.78 in (1008.5 hPa)

Clouds: Mostly cloudy

Visibility: 10 miles (16 km)

Cloud details: Mostly cloudy 7500 ft


2024/04/24 17:54 KLWM 241754Z 22007KT 10SM BKN075 14/05 A2978 RMK AO2 SLP086 60001 T01390050 10139 20078 56013

KFIT - Fitchburg, Massachusetts, USA


Distance from station: WNW 27mi, 43km

Updated Wed Apr 24, 2024 1:52pm EDT

Mostly cloudy

Mostly cloudy

Wind from WNW

Wind:

WNW 8 mph, 13 km/h,
Gust: 18 mph, 30 km/h

Temperature: 63°F (17°C)

Dew Point: 37°F (3°C)

Humidity: 39%

Barometer: 29.78 in (1008.5 hPa)

Clouds: Mostly cloudy

Visibility: 10 miles (16 km)

Cloud details: Mostly cloudy 5500 ft


2024/04/24 17:52 KFIT 241752Z AUTO 30007G16KT 10SM BKN055 17/03 A2978 RMK AO2 SLP084 60000 T01670033 10178 20089 58009

KASH - Nashua/Boire Fld, New Hampshire, USA


Distance from station: NNW 28mi, 45km

Updated Wed Apr 24, 2024 1:56pm EDT

Mostly cloudy

Mostly cloudy

Wind from W

Wind:

W 14 mph, 22 km/h,
Gust: 18 mph, 30 km/h

Temperature: 63°F (17°C)

Dew Point: 39°F (4°C)

Humidity: 42%

Barometer: 29.76 in (1007.8 hPa)

Clouds: Mostly cloudy

Visibility: 10 miles (16 km)

Cloud details: Mostly cloudy 5500 ft


2024/04/24 17:56 KASH 241756Z 26012G16KT 10SM BKN055 17/04 A2976 RMK AO2 SLP082 60000 T01720044 10172 20083 58019

KORH - Worcester, Massachusetts, USA


Distance from station: WSW 34mi, 54km

Updated Wed Apr 24, 2024 1:54pm EDT

Mostly cloudy

Mostly cloudy

Wind from W

Wind:

W 14 mph, 22 km/h,
Gust: 20 mph, 31 km/h

Temperature: 61°F (16°C)

Dew Point: 37°F (3°C)

Humidity: 42%

Barometer: 29.79 in (1008.8 hPa)

Clouds: Mostly cloudy

Visibility: 10 miles (16 km)

Cloud details: Partly cloudy 4400 ft
Mostly cloudy 6000 ft


2024/04/24 17:54 KORH 241754Z 28012G17KT 10SM SCT044 BKN060 16/03 A2979 RMK AO2 SLP090 60001 T01560028 10156 20061 55005

KMHT - Manchester, New Hampshire, USA


Distance from station: NNW 36mi, 57km

Updated Wed Apr 24, 2024 1:53pm EDT

Mostly cloudy

Mostly cloudy

Wind from SW

Wind:

SW 9 mph, 15 km/h

Temperature: 61°F (16°C)

Dew Point: 37°F (3°C)

Humidity: 42%

Barometer: 29.74 in (1007.1 hPa)

Clouds: Mostly cloudy

Visibility: 10 miles (16 km)

Cloud details: Mostly cloudy 6500 ft
Mostly cloudy 11000 ft


2024/04/24 17:53 KMHT 241753Z 23008KT 10SM BKN065 BKN110 16/03 A2974 RMK AO2 SLP084 60000 T01610033 10167 20089 58016

KGHG - Marshfield, Massachusetts, USA


Distance from station: SE 38mi, 60km

Updated Wed Apr 24, 2024 2:35pm EDT

Clear

Clear

Wind from WSW

Wind:

WSW 9 mph, 15 km/h

Temperature: 61°F (16°C)

Dew Point: 43°F (6°C)

Humidity: 52%

Barometer: 29.78 in (1008.5 hPa)

Clouds: Clear

Visibility: 10 miles (16 km)


2024/04/24 18:35 KGHG 241835Z AUTO 24008KT 10SM CLR 16/06 A2978 RMK AO2

KSFZ - Pawtucket, Rhode Island, USA


Distance from station: SSW 38mi, 61km

Updated Wed Apr 24, 2024 1:56pm EDT

Clear

Clear

Wind from WNW

Wind:

WNW 15 mph, 24 km/h,
Gust: 20 mph, 31 km/h

Temperature: 61°F (16°C)

Dew Point: 43°F (6°C)

Humidity: 52%

Barometer: 29.80 in (1009.1 hPa)

Clouds: Clear

Visibility: 10 miles (16 km)


2024/04/24 17:56 KSFZ 241756Z AUTO 29013G17KT 10SM CLR 16/06 A2980 RMK AO2 SLP094 60000 T01610061 10161 20072 58009 $

KTAN - Taunton, Massachusetts, USA


Distance from station: SSE 40mi, 64km

Updated Wed Apr 24, 2024 1:52pm EDT

Clear

Clear

Wind from varies

Wind:

varies 6 mph, 9 km/h

Temperature: 61°F (16°C)

Dew Point: 43°F (6°C)

Humidity: 52%

Barometer: 29.80 in (1009.1 hPa)

Clouds: Clear

Visibility: 10 miles (16 km)


2024/04/24 17:52 KTAN 241752Z AUTO VRB05KT 10SM CLR 16/06 A2980 RMK AO2 RAE08 SLP089 P0000 60000 T01560061 10156 20094 57013

KPYM - Plymouth, Massachusetts, USA


Distance from station: SE 44mi, 71km

Updated Wed Apr 24, 2024 1:52pm EDT

Partly cloudy

Partly cloudy

Wind from SW

Wind:

SW 9 mph, 15 km/h

Temperature: 57°F (14°C)

Dew Point: 43°F (6°C)

Humidity: 59%

Barometer: 29.79 in (1008.8 hPa)

Clouds: Partly cloudy

Visibility: 10 miles (16 km)

Cloud details: Partly cloudy 7500 ft


2024/04/24 17:52 KPYM 241752Z AUTO 23008KT 10SM SCT075 14/06 A2979 RMK AO2 RAB15E25 SLP090 P0000 60000 T01440061 10144 20089 56012

KAFN - Jaffrey, New Hampshire, USA


Distance from station: WNW 46mi, 74km

Updated Wed Apr 24, 2024 1:52pm EDT

Mostly cloudy

Mostly cloudy

Wind from WNW

Wind:

WNW 8 mph, 13 km/h

Temperature: 61°F (16°C)

Dew Point: 37°F (3°C)

Humidity: 42%

Barometer: 29.77 in (1008.1 hPa)

Clouds: Mostly cloudy

Visibility: 10 miles (16 km)

Cloud details: Partly cloudy 4700 ft
Mostly cloudy 6000 ft


2024/04/24 17:52 KAFN 241752Z AUTO 29007KT 10SM SCT047 BKN060 16/03 A2977 RMK AO2 SLP087 60000 T01610028 10161 20078 55009

KPSM - Portsmouth/Pease, New Hampshire, USA


Distance from station: NNE 49mi, 78km

Updated Wed Apr 24, 2024 1:55pm EDT

Mostly cloudy

Mostly cloudy

Wind from W

Wind:

W 8 mph, 13 km/h

Temperature: 57°F (14°C)

Dew Point: 41°F (5°C)

Humidity: 55%

Barometer: 29.75 in (1007.5 hPa)

Clouds: Mostly cloudy

Visibility: 10 miles (16 km)

Cloud details: Partly cloudy 6500 ft
Mostly cloudy 10000 ft


2024/04/24 17:55 KPSM 241755Z 26007KT 10SM SCT065 BKN100 14/05 A2975 RMK AO2A SLP077 60000 T01360050 10136 20072 57012

KPVD - Providence/Green, Rhode Island, USA


Distance from station: S 51mi, 81km

Updated Wed Apr 24, 2024 1:51pm EDT

Few Clouds

Few Clouds

Wind from WSW

Wind:

WSW 14 mph, 22 km/h,
Gust: 21 mph, 33 km/h

Temperature: 63°F (17°C)

Dew Point: 45°F (7°C)

Humidity: 52%

Barometer: 29.81 in (1009.5 hPa)

Clouds: Few Clouds

Visibility: 10 miles (16 km)

Cloud details: Few Clouds 4000 ft
Few Clouds 6500 ft
Few Clouds 25000 ft


2024/04/24 17:51 KPVD 241751Z 25012G18KT 10SM FEW040 FEW065 FEW250 17/07 A2981 RMK AO2 SLP094 60000 T01670067 10167 20078 56012

KORE - Orange, Massachusetts, USA


Distance from station: W 54mi, 86km

Updated Wed Apr 24, 2024 1:52pm EDT

Few Clouds

Few Clouds

Wind from WNW

Wind:

WNW 10 mph, 17 km/h,
Gust: 21 mph, 33 km/h

Temperature: 63°F (17°C)

Dew Point: 37°F (3°C)

Humidity: 39%

Barometer: 29.79 in (1008.8 hPa)

Clouds: Few Clouds

Visibility: 10 miles (16 km)

Cloud details: Few Clouds 7000 ft


2024/04/24 17:52 KORE 241752Z AUTO 30009G18KT 10SM FEW070 17/03 A2979 RMK AO2 PK WND 26026/1712 SLP087 T01720033 10178 20078 56010

KEWB - New Bedford, Massachusetts, USA


Distance from station: SSE 54mi, 87km

Updated Wed Apr 24, 2024 1:53pm EDT

Clear

Clear

Wind from W

Wind:

W 7 mph, 11 km/h

Temperature: 59°F (15°C)

Dew Point: 45°F (7°C)

Humidity: 59%

Barometer: 29.80 in (1009.1 hPa)

Clouds: Clear

Visibility: 10 miles (16 km)


2024/04/24 17:53 KEWB 241753Z 26006KT 10SM CLR 15/07 A2980 RMK AO2 RAB1654E04 SLP089 P0000 60000 T01500072 10150 20089 58011

KCON - Concord, New Hampshire, USA


Distance from station: NNW 54mi, 88km

Updated Wed Apr 24, 2024 1:51pm EDT

Partly cloudy

Partly cloudy

Wind from SW

Wind:

SW 9 mph, 15 km/h

Temperature: 64°F (18°C)

Dew Point: 39°F (4°C)

Humidity: 40%

Barometer: 29.74 in (1007.1 hPa)

Clouds: Partly cloudy

Visibility: 10 miles (16 km)

Cloud details: Partly cloudy 5500 ft


2024/04/24 17:51 KCON 241751Z AUTO 22008KT 10SM SCT055 18/04 A2974 RMK AO2 SLP071 60001 T01780044 10178 20078 58018

KMWN - Mount Washington, New Hampshire, USA


Distance from station: N 127mi, 204km

Updated Wed Apr 24, 2024 1:47pm EDT

Freezing fog, Low drifting snow, Overcast

Freezing fog, Low drifting snow, Overcast

Wind from WNW

Wind:

WNW 46 mph, 74 km/h,
Gust: 51 mph, 81 km/h

Temperature: 30°F (-1°C)

Wind Chill: 12°F (-11°C)

Dew Point: 30°F (-1°C)

Humidity: 100%

Summary: Freezing fog, Low drifting snow

Clouds: Overcast

Visibility: 0 miles (0 km)

Cloud details: Overcast 0 ft


2024/04/24 17:47 KMWN 241747Z 29040G44KT 0SM FZFG DRSN VV000 M01/M01 RMK VRY LGT GICG AND ICG 60026 4/003 931015 11011 21022